sensor_id;sensor_type;location;lat;lon;timestamp;temperature;humidity
70079;DHT22;57451;52.496;13.456;2023-04-01T00:01:00;10.60;76.00
70079;DHT22;57451;52.496;13.456;2023-04-01T00:03:28;10.60;75.90
70079;DHT22;57451;52.496;13.456;2023-04-01T00:05:58;10.60;75.90
70079;DHT22;57451;52.496;13.456;2023-04-01T00:08:26;10.60;75.90
70079;DHT22;57451;52.496;13.456;2023-04-01T00:10:54;10.70;76.20
70079;DHT22;57451;52.496;13.456;2023-04-01T00:13:21;10.60;76.10
70079;DHT22;57451;52.496;13.456;2023-04-01T00:15:48;10.60;76.20
70079;DHT22;57451;52.496;13.456;2023-04-01T00:18:16;10.60;76.00
70079;DHT22;57451;52.496;13.456;2023-04-01T00:20:44;10.60;75.90
70079;DHT22;57451;52.496;13.456;2023-04-01T00:23:14;10.60;76.10
70079;DHT22;57451;52.496;13.456;2023-04-01T00:25:41;10.60;76.10
70079;DHT22;57451;52.496;13.456;2023-04-01T00:28:09;10.60;75.90
70079;DHT22;57451;52.496;13.456;2023-04-01T00:30:37;10.60;76.30
70079;DHT22;57451;52.496;13.456;2023-04-01T00:33:04;10.60;76.00
70079;DHT22;57451;52.496;13.456;2023-04-01T00:35:32;10.60;76.30
70079;DHT22;57451;52.496;13.456;2023-04-01T00:37:59;10.60;76.10
70079;DHT22;57451;52.496;13.456;2023-04-01T00:40:30;10.60;76.00
70079;DHT22;57451;52.496;13.456;2023-04-01T00:42:58;10.60;75.80
70079;DHT22;57451;52.496;13.456;2023-04-01T00:45:29;10.60;76.00
70079;DHT22;57451;52.496;13.456;2023-04-01T00:48:01;10.70;76.20
70079;DHT22;57451;52.496;13.456;2023-04-01T00:50:29;10.70;76.40
70079;DHT22;57451;52.496;13.456;2023-04-01T00:52:58;10.70;76.00
70079;DHT22;57451;52.496;13.456;2023-04-01T00:55:29;10.70;76.20
70079;DHT22;57451;52.496;13.456;2023-04-01T00:58:00;10.70;76.20
70079;DHT22;57451;52.496;13.456;2023-04-01T01:00:29;10.70;76.40
70079;DHT22;57451;52.496;13.456;2023-04-01T01:02:56;10.70;76.50
70079;DHT22;57451;52.496;13.456;2023-04-01T01:05:30;10.60;76.50
70079;DHT22;57451;52.496;13.456;2023-04-01T01:08:22;10.70;76.50
70079;DHT22;57451;52.496;13.456;2023-04-01T01:10:53;10.70;76.40
70079;DHT22;57451;52.496;13.456;2023-04-01T01:13:26;10.70;76.40
70079;DHT22;57451;52.496;13.456;2023-04-01T01:16:01;10.60;76.40
70079;DHT22;57451;52.496;13.456;2023-04-01T01:18:38;10.60;76.00
70079;DHT22;57451;52.496;13.456;2023-04-01T01:21:30;10.70;76.20
70079;DHT22;57451;52.496;13.456;2023-04-01T01:27:03;10.60;76.50
70079;DHT22;57451;52.496;13.456;2023-04-01T01:30:02;10.60;76.70
70079;DHT22;57451;52.496;13.456;2023-04-01T01:32:59;10.60;76.30
70079;DHT22;57451;52.496;13.456;2023-04-01T01:35:34;10.70;76.50
70079;DHT22;57451;52.496;13.456;2023-04-01T01:38:11;10.70;76.10
70079;DHT22;57451;52.496;13.456;2023-04-01T01:40:44;10.70;76.00
70079;DHT22;57451;52.496;13.456;2023-04-01T01:43:16;10.70;76.70
70079;DHT22;57451;52.496;13.456;2023-04-01T01:45:48;10.60;76.30
70079;DHT22;57451;52.496;13.456;2023-04-01T01:48:19;10.70;76.40
70079;DHT22;57451;52.496;13.456;2023-04-01T01:50:48;10.70;77.00
70079;DHT22;57451;52.496;13.456;2023-04-01T01:53:17;10.60;77.20
70079;DHT22;57451;52.496;13.456;2023-04-01T01:55:46;10.60;77.30
70079;DHT22;57451;52.496;13.456;2023-04-01T01:58:18;10.70;77.10
70079;DHT22;57451;52.496;13.456;2023-04-01T02:00:50;10.70;77.50
70079;DHT22;57451;52.496;13.456;2023-04-01T02:03:19;10.70;77.50
70079;DHT22;57451;52.496;13.456;2023-04-01T02:05:50;10.60;77.20
70079;DHT22;57451;52.496;13.456;2023-04-01T02:08:21;10.70;76.70
70079;DHT22;57451;52.496;13.456;2023-04-01T02:10:55;10.70;76.60
70079;DHT22;57451;52.496;13.456;2023-04-01T02:13:31;10.70;76.90
70079;DHT22;57451;52.496;13.456;2023-04-01T02:16:05;10.70;76.60
70079;DHT22;57451;52.496;13.456;2023-04-01T02:18:36;10.70;76.60
70079;DHT22;57451;52.496;13.456;2023-04-01T02:21:08;10.70;76.50
70079;DHT22;57451;52.496;13.456;2023-04-01T02:23:37;10.70;76.60
70079;DHT22;57451;52.496;13.456;2023-04-01T02:26:06;10.70;76.80
70079;DHT22;57451;52.496;13.456;2023-04-01T02:28:36;10.70;77.20
70079;DHT22;57451;52.496;13.456;2023-04-01T02:31:05;10.70;77.30
70079;DHT22;57451;52.496;13.456;2023-04-01T02:33:33;10.70;77.10
70079;DHT22;57451;52.496;13.456;2023-04-01T02:36:00;10.70;77.20
70079;DHT22;57451;52.496;13.456;2023-04-01T02:38:29;10.60;77.50
70079;DHT22;57451;52.496;13.456;2023-04-01T02:40:59;10.70;77.20
70079;DHT22;57451;52.496;13.456;2023-04-01T02:43:27;10.70;77.00
70079;DHT22;57451;52.496;13.456;2023-04-01T02:45:54;10.70;76.90
70079;DHT22;57451;52.496;13.456;2023-04-01T02:48:21;10.70;76.90
70079;DHT22;57451;52.496;13.456;2023-04-01T02:50:49;10.70;76.50
70079;DHT22;57451;52.496;13.456;2023-04-01T02:53:17;10.70;76.50
70079;DHT22;57451;52.496;13.456;2023-04-01T02:55:45;10.70;76.30
70079;DHT22;57451;52.496;13.456;2023-04-01T02:58:13;10.70;76.40
70079;DHT22;57451;52.496;13.456;2023-04-01T03:00:40;10.70;76.60
70079;DHT22;57451;52.496;13.456;2023-04-01T03:03:07;10.70;76.40
70079;DHT22;57451;52.496;13.456;2023-04-01T03:05:35;10.70;76.90
70079;DHT22;57451;52.496;13.456;2023-04-01T03:08:02;10.70;77.10
70079;DHT22;57451;52.496;13.456;2023-04-01T03:10:30;10.70;77.20
70079;DHT22;57451;52.496;13.456;2023-04-01T03:12:58;10.70;77.40
70079;DHT22;57451;52.496;13.456;2023-04-01T03:15:26;10.70;77.20
70079;DHT22;57451;52.496;13.456;2023-04-01T03:17:54;10.80;77.40
70079;DHT22;57451;52.496;13.456;2023-04-01T03:20:21;10.70;77.20
70079;DHT22;57451;52.496;13.456;2023-04-01T03:22:49;10.70;76.70
70079;DHT22;57451;52.496;13.456;2023-04-01T03:25:18;10.70;76.30
70079;DHT22;57451;52.496;13.456;2023-04-01T03:27:45;10.70;76.90
70079;DHT22;57451;52.496;13.456;2023-04-01T03:30:13;10.70;76.50
70079;DHT22;57451;52.496;13.456;2023-04-01T03:32:49;10.70;77.00
70079;DHT22;57451;52.496;13.456;2023-04-01T03:35:16;10.70;76.80
70079;DHT22;57451;52.496;13.456;2023-04-01T03:37:45;10.80;76.70
70079;DHT22;57451;52.496;13.456;2023-04-01T03:40:12;10.70;76.60
70079;DHT22;57451;52.496;13.456;2023-04-01T03:42:39;10.70;76.10
70079;DHT22;57451;52.496;13.456;2023-04-01T03:45:07;10.70;75.70
70079;DHT22;57451;52.496;13.456;2023-04-01T03:47:37;10.70;75.70
70079;DHT22;57451;52.496;13.456;2023-04-01T03:50:06;10.70;76.00
70079;DHT22;57451;52.496;13.456;2023-04-01T03:52:34;10.70;76.40
70079;DHT22;57451;52.496;13.456;2023-04-01T03:55:02;10.70;76.30
70079;DHT22;57451;52.496;13.456;2023-04-01T03:57:30;10.70;76.50
70079;DHT22;57451;52.496;13.456;2023-04-01T04:00:04;10.70;76.40
70079;DHT22;57451;52.496;13.456;2023-04-01T04:02:41;10.70;76.80
70079;DHT22;57451;52.496;13.456;2023-04-01T04:05:10;10.70;77.10
70079;DHT22;57451;52.496;13.456;2023-04-01T04:07:38;10.60;76.80
70079;DHT22;57451;52.496;13.456;2023-04-01T04:10:08;10.70;76.70
70079;DHT22;57451;52.496;13.456;2023-04-01T04:12:35;10.70;76.50
70079;DHT22;57451;52.496;13.456;2023-04-01T04:15:03;10.70;76.50
70079;DHT22;57451;52.496;13.456;2023-04-01T04:17:30;10.70;76.50
70079;DHT22;57451;52.496;13.456;2023-04-01T04:19:59;10.70;76.30
70079;DHT22;57451;52.496;13.456;2023-04-01T04:22:26;10.70;76.40
70079;DHT22;57451;52.496;13.456;2023-04-01T04:24:54;10.70;76.40
70079;DHT22;57451;52.496;13.456;2023-04-01T04:27:21;10.70;76.20
70079;DHT22;57451;52.496;13.456;2023-04-01T04:30:06;10.70;76.80
70079;DHT22;57451;52.496;13.456;2023-04-01T04:32:35;10.70;77.00
70079;DHT22;57451;52.496;13.456;2023-04-01T04:35:04;10.70;77.00
70079;DHT22;57451;52.496;13.456;2023-04-01T04:37:34;10.70;76.60
70079;DHT22;57451;52.496;13.456;2023-04-01T04:40:01;10.70;76.10
70079;DHT22;57451;52.496;13.456;2023-04-01T04:42:30;10.70;76.30
70079;DHT22;57451;52.496;13.456;2023-04-01T04:45:03;10.70;76.30
70079;DHT22;57451;52.496;13.456;2023-04-01T04:47:31;10.80;76.50
70079;DHT22;57451;52.496;13.456;2023-04-01T04:49:58;10.80;76.00
70079;DHT22;57451;52.496;13.456;2023-04-01T04:52:27;10.80;76.00
70079;DHT22;57451;52.496;13.456;2023-04-01T04:54:55;10.80;76.50
70079;DHT22;57451;52.496;13.456;2023-04-01T04:57:22;10.70;76.50
70079;DHT22;57451;52.496;13.456;2023-04-01T04:59:54;10.80;76.80
70079;DHT22;57451;52.496;13.456;2023-04-01T05:02:42;10.70;76.90
70079;DHT22;57451;52.496;13.456;2023-04-01T05:05:09;10.70;76.70
70079;DHT22;57451;52.496;13.456;2023-04-01T05:07:38;10.70;76.90
70079;DHT22;57451;52.496;13.456;2023-04-01T05:10:06;10.80;77.10
70079;DHT22;57451;52.496;13.456;2023-04-01T05:12:34;10.80;76.70
70079;DHT22;57451;52.496;13.456;2023-04-01T05:15:06;10.80;76.40
70079;DHT22;57451;52.496;13.456;2023-04-01T05:17:34;10.80;76.50
70079;DHT22;57451;52.496;13.456;2023-04-01T05:20:04;10.80;77.00
70079;DHT22;57451;52.496;13.456;2023-04-01T05:22:32;10.80;77.10
70079;DHT22;57451;52.496;13.456;2023-04-01T05:25:00;10.80;77.10
70079;DHT22;57451;52.496;13.456;2023-04-01T05:27:28;10.80;76.70
70079;DHT22;57451;52.496;13.456;2023-04-01T05:29:55;10.80;76.70
70079;DHT22;57451;52.496;13.456;2023-04-01T05:32:38;10.80;76.60
70079;DHT22;57451;52.496;13.456;2023-04-01T05:35:06;10.80;76.60
70079;DHT22;57451;52.496;13.456;2023-04-01T05:37:33;10.80;76.40
70079;DHT22;57451;52.496;13.456;2023-04-01T05:40:05;10.80;77.10
70079;DHT22;57451;52.496;13.456;2023-04-01T05:42:33;10.80;77.10
70079;DHT22;57451;52.496;13.456;2023-04-01T05:45:04;10.80;77.50
70079;DHT22;57451;52.496;13.456;2023-04-01T05:48:09;10.80;77.50
70079;DHT22;57451;52.496;13.456;2023-04-01T05:50:40;10.80;77.40
70079;DHT22;57451;52.496;13.456;2023-04-01T05:53:09;10.80;77.60
70079;DHT22;57451;52.496;13.456;2023-04-01T05:55:40;10.80;77.50
70079;DHT22;57451;52.496;13.456;2023-04-01T05:58:07;10.90;77.80
70079;DHT22;57451;52.496;13.456;2023-04-01T06:00:38;10.90;77.70
70079;DHT22;57451;52.496;13.456;2023-04-01T06:03:05;10.90;77.80
70079;DHT22;57451;52.496;13.456;2023-04-01T06:05:38;10.90;77.20
70079;DHT22;57451;52.496;13.456;2023-04-01T06:08:10;10.90;77.00
70079;DHT22;57451;52.496;13.456;2023-04-01T06:10:50;10.90;77.30
70079;DHT22;57451;52.496;13.456;2023-04-01T06:13:30;10.90;77.60
70079;DHT22;57451;52.496;13.456;2023-04-01T06:16:07;10.90;77.50
70079;DHT22;57451;52.496;13.456;2023-04-01T06:18:45;10.90;77.70
70079;DHT22;57451;52.496;13.456;2023-04-01T06:21:28;10.90;77.50
70079;DHT22;57451;52.496;13.456;2023-04-01T06:24:18;10.90;77.50
70079;DHT22;57451;52.496;13.456;2023-04-01T06:26:56;11.00;77.60
70079;DHT22;57451;52.496;13.456;2023-04-01T06:29:47;11.00;77.10
70079;DHT22;57451;52.496;13.456;2023-04-01T06:35:24;11.00;78.30
70079;DHT22;57451;52.496;13.456;2023-04-01T06:38:09;11.00;78.00
70079;DHT22;57451;52.496;13.456;2023-04-01T06:41:02;11.00;77.50
70079;DHT22;57451;52.496;13.456;2023-04-01T06:43:47;11.00;77.50
70079;DHT22;57451;52.496;13.456;2023-04-01T06:46:44;11.00;77.80
70079;DHT22;57451;52.496;13.456;2023-04-01T06:49:44;11.10;78.10
70079;DHT22;57451;52.496;13.456;2023-04-01T06:52:41;11.00;78.20
70079;DHT22;57451;52.496;13.456;2023-04-01T06:55:36;11.00;78.20
70079;DHT22;57451;52.496;13.456;2023-04-01T06:58:39;11.10;78.30
70079;DHT22;57451;52.496;13.456;2023-04-01T07:01:13;11.10;77.90
70079;DHT22;57451;52.496;13.456;2023-04-01T07:03:44;11.10;78.10
70079;DHT22;57451;52.496;13.456;2023-04-01T07:06:24;11.10;78.00
70079;DHT22;57451;52.496;13.456;2023-04-01T07:08:57;11.10;77.90
70079;DHT22;57451;52.496;13.456;2023-04-01T07:11:50;11.10;77.70
70079;DHT22;57451;52.496;13.456;2023-04-01T07:15:04;11.10;77.80
70079;DHT22;57451;52.496;13.456;2023-04-01T07:17:34;11.10;77.70
70079;DHT22;57451;52.496;13.456;2023-04-01T07:20:10;11.20;77.40
70079;DHT22;57451;52.496;13.456;2023-04-01T07:22:40;11.20;77.20
70079;DHT22;57451;52.496;13.456;2023-04-01T07:25:22;11.20;77.70
70079;DHT22;57451;52.496;13.456;2023-04-01T07:28:12;11.20;77.60
70079;DHT22;57451;52.496;13.456;2023-04-01T07:30:52;11.20;77.60
70079;DHT22;57451;52.496;13.456;2023-04-01T07:33:33;11.20;77.50
70079;DHT22;57451;52.496;13.456;2023-04-01T07:36:07;11.20;77.60
70079;DHT22;57451;52.496;13.456;2023-04-01T07:38:45;11.20;77.40
70079;DHT22;57451;52.496;13.456;2023-04-01T07:41:37;11.20;77.20
70079;DHT22;57451;52.496;13.456;2023-04-01T07:44:17;11.30;77.40
70079;DHT22;57451;52.496;13.456;2023-04-01T07:46:55;11.20;77.60
70079;DHT22;57451;52.496;13.456;2023-04-01T07:49:32;11.30;77.40
70079;DHT22;57451;52.496;13.456;2023-04-01T07:52:05;11.30;77.40
70079;DHT22;57451;52.496;13.456;2023-04-01T07:54:40;11.30;77.70
70079;DHT22;57451;52.496;13.456;2023-04-01T07:57:12;11.30;77.90
70079;DHT22;57451;52.496;13.456;2023-04-01T07:59:54;11.30;77.60
70079;DHT22;57451;52.496;13.456;2023-04-01T08:02:52;11.40;76.90
70079;DHT22;57451;52.496;13.456;2023-04-01T08:05:25;11.40;76.70
70079;DHT22;57451;52.496;13.456;2023-04-01T08:08:06;11.50;76.90
70079;DHT22;57451;52.496;13.456;2023-04-01T08:10:59;11.50;76.10
70079;DHT22;57451;52.496;13.456;2023-04-01T08:13:55;11.60;76.00
70079;DHT22;57451;52.496;13.456;2023-04-01T08:16:54;11.60;76.70
70079;DHT22;57451;52.496;13.456;2023-04-01T08:19:50;11.60;76.70
70079;DHT22;57451;52.496;13.456;2023-04-01T08:22:29;11.70;76.60
70079;DHT22;57451;52.496;13.456;2023-04-01T08:25:02;11.70;77.00
70079;DHT22;57451;52.496;13.456;2023-04-01T08:27:35;11.70;77.30
70079;DHT22;57451;52.496;13.456;2023-04-01T08:30:16;11.70;77.10
70079;DHT22;57451;52.496;13.456;2023-04-01T08:32:48;11.60;76.70
70079;DHT22;57451;52.496;13.456;2023-04-01T08:35:26;11.60;76.30
70079;DHT22;57451;52.496;13.456;2023-04-01T08:38:01;11.50;75.90
70079;DHT22;57451;52.496;13.456;2023-04-01T08:40:55;11.50;75.60
70079;DHT22;57451;52.496;13.456;2023-04-01T08:43:41;11.30;75.60
70079;DHT22;57451;52.496;13.456;2023-04-01T08:46:21;11.30;75.80
70079;DHT22;57451;52.496;13.456;2023-04-01T08:49:16;11.30;75.80
70079;DHT22;57451;52.496;13.456;2023-04-01T08:52:20;11.30;76.00
70079;DHT22;57451;52.496;13.456;2023-04-01T08:58:18;11.30;75.90
70079;DHT22;57451;52.496;13.456;2023-04-01T09:03:44;11.30;76.30
70079;DHT22;57451;52.496;13.456;2023-04-01T09:06:29;11.20;76.70
70079;DHT22;57451;52.496;13.456;2023-04-01T09:09:26;11.30;76.60
70079;DHT22;57451;52.496;13.456;2023-04-01T09:15:12;11.30;76.70
70079;DHT22;57451;52.496;13.456;2023-04-01T09:18:08;11.40;76.40
70079;DHT22;57451;52.496;13.456;2023-04-01T09:20:47;11.40;76.10
70079;DHT22;57451;52.496;13.456;2023-04-01T09:23:43;11.40;76.10
70079;DHT22;57451;52.496;13.456;2023-04-01T09:29:13;11.40;75.70
70079;DHT22;57451;52.496;13.456;2023-04-01T09:32:09;11.50;75.30
70079;DHT22;57451;52.496;13.456;2023-04-01T09:34:53;11.50;74.90
70079;DHT22;57451;52.496;13.456;2023-04-01T09:37:34;11.40;74.70
70079;DHT22;57451;52.496;13.456;2023-04-01T09:40:16;11.30;74.60
70079;DHT22;57451;52.496;13.456;2023-04-01T09:45:56;11.20;74.60
70079;DHT22;57451;52.496;13.456;2023-04-01T09:48:51;11.20;74.50
70079;DHT22;57451;52.496;13.456;2023-04-01T09:51:28;11.20;74.50
70079;DHT22;57451;52.496;13.456;2023-04-01T09:54:11;11.20;74.20
70079;DHT22;57451;52.496;13.456;2023-04-01T09:57:07;11.10;74.40
70079;DHT22;57451;52.496;13.456;2023-04-01T10:00:02;11.00;74.80
70079;DHT22;57451;52.496;13.456;2023-04-01T10:06:13;11.00;74.60
70079;DHT22;57451;52.496;13.456;2023-04-01T10:09:21;10.80;74.60
70079;DHT22;57451;52.496;13.456;2023-04-01T10:12:31;10.70;75.00
70079;DHT22;57451;52.496;13.456;2023-04-01T10:15:30;10.60;75.10
70079;DHT22;57451;52.496;13.456;2023-04-01T10:18:18;10.60;75.40
70079;DHT22;57451;52.496;13.456;2023-04-01T10:21:05;10.60;75.40
70079;DHT22;57451;52.496;13.456;2023-04-01T10:23:58;10.60;75.30
70079;DHT22;57451;52.496;13.456;2023-04-01T10:26:54;10.70;75.30
70079;DHT22;57451;52.496;13.456;2023-04-01T10:30:23;10.80;75.10
70079;DHT22;57451;52.496;13.456;2023-04-01T10:36:28;10.90;75.00
70079;DHT22;57451;52.496;13.456;2023-04-01T10:39:20;10.80;75.40
70079;DHT22;57451;52.496;13.456;2023-04-01T10:42:44;10.80;75.40
70079;DHT22;57451;52.496;13.456;2023-04-01T10:45:57;10.70;75.80
70079;DHT22;57451;52.496;13.456;2023-04-01T10:48:53;10.80;76.10
70079;DHT22;57451;52.496;13.456;2023-04-01T10:51:43;10.70;75.80
70079;DHT22;57451;52.496;13.456;2023-04-01T10:54:43;10.70;75.80
70079;DHT22;57451;52.496;13.456;2023-04-01T10:58:05;10.60;75.90
70079;DHT22;57451;52.496;13.456;2023-04-01T11:01:43;10.70;75.80
70079;DHT22;57451;52.496;13.456;2023-04-01T11:05:27;10.70;75.40
70079;DHT22;57451;52.496;13.456;2023-04-01T11:08:38;10.60;75.20
70079;DHT22;57451;52.496;13.456;2023-04-01T11:11:36;10.60;75.50
70079;DHT22;57451;52.496;13.456;2023-04-01T11:17:45;10.70;75.10
70079;DHT22;57451;52.496;13.456;2023-04-01T11:23:25;10.60;75.60
70079;DHT22;57451;52.496;13.456;2023-04-01T11:26:07;10.60;75.30
70079;DHT22;57451;52.496;13.456;2023-04-01T11:29:24;10.50;75.10
70079;DHT22;57451;52.496;13.456;2023-04-01T11:32:08;10.60;75.40
70079;DHT22;57451;52.496;13.456;2023-04-01T11:34:52;10.70;74.80
70079;DHT22;57451;52.496;13.456;2023-04-01T11:37:37;10.70;74.60
70079;DHT22;57451;52.496;13.456;2023-04-01T11:40:46;10.60;74.60
70079;DHT22;57451;52.496;13.456;2023-04-01T11:43:38;10.70;73.80
70079;DHT22;57451;52.496;13.456;2023-04-01T11:46:27;10.60;74.20
70079;DHT22;57451;52.496;13.456;2023-04-01T11:49:07;10.60;74.30
70079;DHT22;57451;52.496;13.456;2023-04-01T11:51:51;10.60;74.40
70079;DHT22;57451;52.496;13.456;2023-04-01T11:54:32;10.50;74.10
70079;DHT22;57451;52.496;13.456;2023-04-01T11:57:31;10.50;74.10
70079;DHT22;57451;52.496;13.456;2023-04-01T12:00:18;10.50;74.40
70079;DHT22;57451;52.496;13.456;2023-04-01T12:03:01;10.50;74.20
70079;DHT22;57451;52.496;13.456;2023-04-01T12:05:41;10.50;74.10
70079;DHT22;57451;52.496;13.456;2023-04-01T12:08:15;10.30;74.20
70079;DHT22;57451;52.496;13.456;2023-04-01T12:10:50;10.20;74.60
70079;DHT22;57451;52.496;13.456;2023-04-01T12:13:35;10.20;74.90
70079;DHT22;57451;52.496;13.456;2023-04-01T12:16:11;10.30;74.80
70079;DHT22;57451;52.496;13.456;2023-04-01T12:18:43;10.30;74.90
70079;DHT22;57451;52.496;13.456;2023-04-01T12:21:23;10.30;74.50
70079;DHT22;57451;52.496;13.456;2023-04-01T12:24:05;10.20;74.90
70079;DHT22;57451;52.496;13.456;2023-04-01T12:26:55;10.20;75.00
70079;DHT22;57451;52.496;13.456;2023-04-01T12:29:48;10.20;75.00
70079;DHT22;57451;52.496;13.456;2023-04-01T12:32:23;10.20;75.20
70079;DHT22;57451;52.496;13.456;2023-04-01T12:35:02;10.20;75.50
70079;DHT22;57451;52.496;13.456;2023-04-01T12:37:39;10.20;75.30
70079;DHT22;57451;52.496;13.456;2023-04-01T12:40:40;10.30;75.30
70079;DHT22;57451;52.496;13.456;2023-04-01T12:43:28;10.30;75.00
70079;DHT22;57451;52.496;13.456;2023-04-01T12:46:13;10.30;75.00
70079;DHT22;57451;52.496;13.456;2023-04-01T12:49:09;10.20;74.70
70079;DHT22;57451;52.496;13.456;2023-04-01T12:55:18;10.10;74.60
70079;DHT22;57451;52.496;13.456;2023-04-01T13:04:24;10.10;74.60
70079;DHT22;57451;52.496;13.456;2023-04-01T13:07:07;10.00;74.80
70079;DHT22;57451;52.496;13.456;2023-04-01T13:09:45;10.00;75.10
70079;DHT22;57451;52.496;13.456;2023-04-01T13:12:30;9.90;74.40
70079;DHT22;57451;52.496;13.456;2023-04-01T13:15:13;9.80;75.20
70079;DHT22;57451;52.496;13.456;2023-04-01T13:17:51;9.80;75.10
70079;DHT22;57451;52.496;13.456;2023-04-01T13:20:25;9.70;74.80
70079;DHT22;57451;52.496;13.456;2023-04-01T13:23:04;9.70;75.10
70079;DHT22;57451;52.496;13.456;2023-04-01T13:25:39;9.60;75.90
70079;DHT22;57451;52.496;13.456;2023-04-01T13:28:15;9.50;75.40
70079;DHT22;57451;52.496;13.456;2023-04-01T13:30:49;9.50;75.30
70079;DHT22;57451;52.496;13.456;2023-04-01T13:33:27;9.60;75.20
70079;DHT22;57451;52.496;13.456;2023-04-01T13:36:13;9.50;74.40
70079;DHT22;57451;52.496;13.456;2023-04-01T13:39:02;9.50;75.00
70079;DHT22;57451;52.496;13.456;2023-04-01T13:41:43;9.50;74.70
70079;DHT22;57451;52.496;13.456;2023-04-01T13:44:19;9.40;74.80
70079;DHT22;57451;52.496;13.456;2023-04-01T13:47:00;9.50;74.60
70079;DHT22;57451;52.496;13.456;2023-04-01T13:50:02;9.50;74.40
70079;DHT22;57451;52.496;13.456;2023-04-01T13:52:56;9.50;74.40
70079;DHT22;57451;52.496;13.456;2023-04-01T13:55:44;9.40;74.70
70079;DHT22;57451;52.496;13.456;2023-04-01T14:01:17;9.60;75.00
70079;DHT22;57451;52.496;13.456;2023-04-01T14:04:02;9.60;74.70
70079;DHT22;57451;52.496;13.456;2023-04-01T14:06:40;9.60;75.00
70079;DHT22;57451;52.496;13.456;2023-04-01T14:09:29;9.70;75.00
70079;DHT22;57451;52.496;13.456;2023-04-01T14:12:04;9.70;74.70
70079;DHT22;57451;52.496;13.456;2023-04-01T14:14:48;9.70;74.30
70079;DHT22;57451;52.496;13.456;2023-04-01T14:17:39;9.80;73.70
70079;DHT22;57451;52.496;13.456;2023-04-01T14:20:25;9.70;73.90
70079;DHT22;57451;52.496;13.456;2023-04-01T14:23:17;9.60;74.40
70079;DHT22;57451;52.496;13.456;2023-04-01T14:26:00;9.60;74.10
70079;DHT22;57451;52.496;13.456;2023-04-01T14:28:34;9.60;74.00
70079;DHT22;57451;52.496;13.456;2023-04-01T14:31:23;9.60;73.80
70079;DHT22;57451;52.496;13.456;2023-04-01T14:34:00;9.50;74.20
70079;DHT22;57451;52.496;13.456;2023-04-01T14:36:47;9.40;73.90
70079;DHT22;57451;52.496;13.456;2023-04-01T14:39:29;9.30;73.90
70079;DHT22;57451;52.496;13.456;2023-04-01T14:42:13;9.20;73.80
70079;DHT22;57451;52.496;13.456;2023-04-01T14:44:57;9.10;74.20
70079;DHT22;57451;52.496;13.456;2023-04-01T14:47:38;9.10;74.00
70079;DHT22;57451;52.496;13.456;2023-04-01T14:50:12;9.10;74.30
70079;DHT22;57451;52.496;13.456;2023-04-01T14:52:43;9.00;74.80
70079;DHT22;57451;52.496;13.456;2023-04-01T14:55:25;9.00;74.90
70079;DHT22;57451;52.496;13.456;2023-04-01T14:58:08;9.10;75.10
70079;DHT22;57451;52.496;13.456;2023-04-01T15:00:48;9.20;74.70
70079;DHT22;57451;52.496;13.456;2023-04-01T15:03:22;9.10;74.60
70079;DHT22;57451;52.496;13.456;2023-04-01T15:05:56;9.00;74.70
70079;DHT22;57451;52.496;13.456;2023-04-01T15:08:29;8.80;74.50
70079;DHT22;57451;52.496;13.456;2023-04-01T15:11:13;8.80;75.00
70079;DHT22;57451;52.496;13.456;2023-04-01T15:13:57;8.80;74.90
70079;DHT22;57451;52.496;13.456;2023-04-01T15:16:36;8.80;74.40
70079;DHT22;57451;52.496;13.456;2023-04-01T15:19:15;8.90;74.00
70079;DHT22;57451;52.496;13.456;2023-04-01T15:21:55;8.90;73.80
70079;DHT22;57451;52.496;13.456;2023-04-01T15:24:26;8.90;74.10
70079;DHT22;57451;52.496;13.456;2023-04-01T15:27:14;8.90;74.10
70079;DHT22;57451;52.496;13.456;2023-04-01T15:29:59;8.90;74.50
70079;DHT22;57451;52.496;13.456;2023-04-01T15:32:42;8.90;74.40
70079;DHT22;57451;52.496;13.456;2023-04-01T15:35:21;8.90;74.20
70079;DHT22;57451;52.496;13.456;2023-04-01T15:37:54;8.90;74.30
70079;DHT22;57451;52.496;13.456;2023-04-01T15:40:28;8.90;74.30
70079;DHT22;57451;52.496;13.456;2023-04-01T15:43:06;8.80;73.90
70079;DHT22;57451;52.496;13.456;2023-04-01T15:45:46;8.80;73.90
70079;DHT22;57451;52.496;13.456;2023-04-01T15:48:27;8.80;73.60
70079;DHT22;57451;52.496;13.456;2023-04-01T15:51:08;8.80;73.90
70079;DHT22;57451;52.496;13.456;2023-04-01T15:53:56;8.60;74.20
70079;DHT22;57451;52.496;13.456;2023-04-01T15:56:44;8.50;74.10
70079;DHT22;57451;52.496;13.456;2023-04-01T15:59:27;8.50;73.90
70079;DHT22;57451;52.496;13.456;2023-04-01T16:01:59;8.40;74.40
70079;DHT22;57451;52.496;13.456;2023-04-01T16:04:49;8.40;73.90
70079;DHT22;57451;52.496;13.456;2023-04-01T16:07:47;8.40;73.40
70079;DHT22;57451;52.496;13.456;2023-04-01T16:10:38;8.30;73.70
70079;DHT22;57451;52.496;13.456;2023-04-01T16:13:24;8.20;74.30
70079;DHT22;57451;52.496;13.456;2023-04-01T16:16:00;8.10;74.90
70079;DHT22;57451;52.496;13.456;2023-04-01T16:18:40;8.20;74.80
70079;DHT22;57451;52.496;13.456;2023-04-01T16:21:21;8.10;75.20
70079;DHT22;57451;52.496;13.456;2023-04-01T16:23:55;8.10;75.30
70079;DHT22;57451;52.496;13.456;2023-04-01T16:26:27;8.20;75.30
70079;DHT22;57451;52.496;13.456;2023-04-01T16:29:02;8.20;74.80
70079;DHT22;57451;52.496;13.456;2023-04-01T16:31:37;8.00;75.10
70079;DHT22;57451;52.496;13.456;2023-04-01T16:34:15;8.10;75.10
70079;DHT22;57451;52.496;13.456;2023-04-01T16:36:47;8.10;74.80
70079;DHT22;57451;52.496;13.456;2023-04-01T16:39:25;8.00;74.80
70079;DHT22;57451;52.496;13.456;2023-04-01T16:42:11;8.00;74.50
70079;DHT22;57451;52.496;13.456;2023-04-01T16:44:48;7.90;74.90
70079;DHT22;57451;52.496;13.456;2023-04-01T16:47:20;8.00;74.60
70079;DHT22;57451;52.496;13.456;2023-04-01T16:49:52;7.80;74.60
70079;DHT22;57451;52.496;13.456;2023-04-01T16:52:35;7.80;74.90
70079;DHT22;57451;52.496;13.456;2023-04-01T16:55:14;7.80;74.60
70079;DHT22;57451;52.496;13.456;2023-04-01T16:57:46;7.70;74.20
70079;DHT22;57451;52.496;13.456;2023-04-01T17:00:22;7.50;74.50
70079;DHT22;57451;52.496;13.456;2023-04-01T17:03:02;7.50;74.70
70079;DHT22;57451;52.496;13.456;2023-04-01T17:05:43;7.40;74.60
70079;DHT22;57451;52.496;13.456;2023-04-01T17:08:21;7.40;74.50
70079;DHT22;57451;52.496;13.456;2023-04-01T17:10:53;7.40;74.90
70079;DHT22;57451;52.496;13.456;2023-04-01T17:13:35;7.40;74.20
70079;DHT22;57451;52.496;13.456;2023-04-01T17:19:14;7.10;74.80
70079;DHT22;57451;52.496;13.456;2023-04-01T17:21:57;7.10;75.30
70079;DHT22;57451;52.496;13.456;2023-04-01T17:24:41;7.10;75.30